createdAt,value
2023-04-18T00:01:52.577Z,116.60
2023-04-18T00:04:20.037Z,117.21
2023-04-18T00:06:49.638Z,116.67
2023-04-18T00:09:16.503Z,117.04
2023-04-18T00:11:43.587Z,117.30
2023-04-18T00:14:10.506Z,117.11
2023-04-18T00:16:38.170Z,116.76
2023-04-18T00:19:05.258Z,117.11
2023-04-18T00:21:32.128Z,116.95
2023-04-18T00:23:58.923Z,116.73
2023-04-18T00:26:27.220Z,116.84
2023-04-18T00:28:53.941Z,116.65
2023-04-18T00:31:20.763Z,116.30
2023-04-18T00:33:47.682Z,116.05
2023-04-18T00:36:14.472Z,115.60
2023-04-18T00:38:41.304Z,115.70
2023-04-18T00:41:08.086Z,115.58
2023-04-18T00:43:35.147Z,115.58
2023-04-18T00:46:01.965Z,115.49
2023-04-18T00:48:30.132Z,115.38
2023-04-18T00:50:57.706Z,115.38
2023-04-18T00:53:24.660Z,115.47
2023-04-18T00:55:51.595Z,115.52
2023-04-18T00:58:18.314Z,114.96
2023-04-18T01:00:45.770Z,115.28
2023-04-18T01:03:14.540Z,114.80
2023-04-18T01:05:41.773Z,114.35
2023-04-18T01:08:08.700Z,114.37
2023-04-18T01:10:36.267Z,114.21
2023-04-18T01:13:21.459Z,114.27
2023-04-18T01:15:50.425Z,113.90
2023-04-18T01:18:18.239Z,113.71
2023-04-18T01:20:54.672Z,113.49
2023-04-18T01:23:21.597Z,113.65
2023-04-18T01:25:51.827Z,113.80
2023-04-18T01:28:22.710Z,113.99
2023-04-18T01:30:49.796Z,113.42
2023-04-18T01:33:16.624Z,113.37
2023-04-18T01:35:43.325Z,113.46
2023-04-18T01:38:10.031Z,113.38
2023-04-18T01:40:36.819Z,113.44
2023-04-18T01:43:03.556Z,113.41
2023-04-18T01:45:30.303Z,113.17
2023-04-18T01:47:57.103Z,112.92
2023-04-18T01:50:24.009Z,113.14
2023-04-18T01:52:51.010Z,112.31
2023-04-18T01:55:17.972Z,112.57
2023-04-18T01:57:44.753Z,112.39
2023-04-18T02:00:12.086Z,112.52
2023-04-18T02:02:38.958Z,112.12
2023-04-18T02:05:06.264Z,112.08
2023-04-18T02:07:32.983Z,111.75
2023-04-18T02:09:59.764Z,112.09
2023-04-18T02:12:26.580Z,112.03
2023-04-18T02:14:53.720Z,111.85
2023-04-18T02:17:21.513Z,111.17
2023-04-18T02:19:48.426Z,111.33
2023-04-18T02:22:15.181Z,111.67
2023-04-18T02:24:41.921Z,112.19
2023-04-18T02:27:09.720Z,112.11
2023-04-18T02:29:36.605Z,112.23
2023-04-18T02:32:03.856Z,112.13
2023-04-18T02:34:32.445Z,111.71
2023-04-18T02:36:59.376Z,111.90
2023-04-18T02:39:26.113Z,112.10
2023-04-18T02:41:52.878Z,112.25
2023-04-18T02:44:20.292Z,112.71
2023-04-18T02:46:47.101Z,112.34
2023-04-18T02:49:14.256Z,112.00
2023-04-18T02:51:41.077Z,111.97
2023-04-18T02:54:07.989Z,111.70
2023-04-18T02:56:39.853Z,111.90
2023-04-18T02:59:07.199Z,112.28
2023-04-18T03:01:34.156Z,112.53
2023-04-18T03:04:01.117Z,112.58
2023-04-18T03:06:27.883Z,112.32
2023-04-18T03:08:55.716Z,112.06
2023-04-18T03:11:22.601Z,112.13
2023-04-18T03:13:49.302Z,111.96
2023-04-18T03:16:16.779Z,111.79
2023-04-18T03:18:43.798Z,111.97
2023-04-18T03:21:11.423Z,111.71
2023-04-18T03:23:38.379Z,111.78
2023-04-18T03:26:08.741Z,110.91
2023-04-18T03:28:35.629Z,110.66
2023-04-18T03:31:02.487Z,110.55
2023-04-18T03:33:29.376Z,110.33
2023-04-18T03:35:56.265Z,109.91
2023-04-18T03:38:23.033Z,109.75
2023-04-18T03:40:49.948Z,110.10
2023-04-18T03:43:16.707Z,109.75
2023-04-18T03:45:44.389Z,109.46
2023-04-18T03:48:11.116Z,109.30
2023-04-18T03:50:37.825Z,109.37
2023-04-18T03:53:04.654Z,109.01
2023-04-18T03:55:31.466Z,109.08
2023-04-18T03:57:59.229Z,109.03
2023-04-18T04:00:26.426Z,109.27
2023-04-18T04:02:53.360Z,108.28
2023-04-18T04:05:20.279Z,108.72
2023-04-18T04:07:47.433Z,108.80
2023-04-18T04:10:14.371Z,108.34
2023-04-18T04:12:41.370Z,108.42
2023-04-18T04:15:08.620Z,108.17
2023-04-18T04:17:35.466Z,107.75
2023-04-18T04:20:02.591Z,107.72
2023-04-18T04:22:29.282Z,107.88
2023-04-18T04:24:57.773Z,107.53
2023-04-18T04:27:25.121Z,107.62
2023-04-18T04:29:52.336Z,107.26
2023-04-18T04:32:20.295Z,106.86
2023-04-18T04:34:47.128Z,106.80
2023-04-18T04:37:19.802Z,107.19
2023-04-18T04:39:46.579Z,106.75
2023-04-18T04:42:13.418Z,106.88
2023-04-18T04:44:41.604Z,106.63
2023-04-18T04:47:08.512Z,107.16
2023-04-18T04:49:35.265Z,107.23
2023-04-18T04:52:02.934Z,106.95
2023-04-18T04:54:30.152Z,107.60
2023-04-18T04:56:56.904Z,107.63
2023-04-18T04:59:23.650Z,107.43
2023-04-18T05:01:50.519Z,107.31
2023-04-18T05:04:17.686Z,108.03
2023-04-18T05:06:45.434Z,107.14
2023-04-18T05:09:12.140Z,107.38
2023-04-18T05:11:38.848Z,107.56
2023-04-18T05:14:05.690Z,107.61
2023-04-18T05:16:32.931Z,107.08
2023-04-18T05:18:59.777Z,107.24
2023-04-18T05:21:28.588Z,107.10
2023-04-18T05:23:56.299Z,107.02
2023-04-18T05:26:23.357Z,106.75
2023-04-18T05:28:50.220Z,107.02
2023-04-18T05:31:17.066Z,106.83
2023-04-18T05:33:43.902Z,106.56
2023-04-18T05:36:10.742Z,106.03
2023-04-18T05:38:37.667Z,105.93
2023-04-18T05:41:05.418Z,105.56
2023-04-18T05:43:32.199Z,105.98
2023-04-18T05:45:58.855Z,105.41
2023-04-18T05:48:25.728Z,105.15
2023-04-18T05:50:52.446Z,104.08
2023-04-18T05:53:19.182Z,102.10
2023-04-18T05:55:48.582Z,100.85
2023-04-18T05:58:15.852Z,98.75
2023-04-18T06:00:43.052Z,96.95
2023-04-18T06:03:11.274Z,96.92
2023-04-18T06:05:38.690Z,89.80
2023-04-18T06:08:05.949Z,88.15
2023-04-18T06:10:33.105Z,89.60
2023-04-18T06:12:59.951Z,91.15
2023-04-18T06:15:26.827Z,83.92
2023-04-18T06:17:53.824Z,75.60
2023-04-18T06:20:20.744Z,78.12
2023-04-18T06:22:47.441Z,77.02
2023-04-18T06:25:14.517Z,84.81
2023-04-18T06:27:41.375Z,91.35
2023-04-18T06:30:08.778Z,93.40
2023-04-18T06:32:35.620Z,95.65
2023-04-18T06:35:02.426Z,96.41
2023-04-18T06:37:29.506Z,97.44
2023-04-18T06:39:56.250Z,98.45
2023-04-18T06:42:23.071Z,98.48
2023-04-18T06:44:50.260Z,98.35
2023-04-18T06:47:17.195Z,99.01
2023-04-18T06:49:43.996Z,98.95
2023-04-18T06:52:10.973Z,100.54
2023-04-18T06:54:37.766Z,100.25
2023-04-18T06:57:04.559Z,100.70
2023-04-18T06:59:31.628Z,101.91
2023-04-18T07:01:58.478Z,101.14
2023-04-18T07:04:25.401Z,101.21
2023-04-18T07:06:52.517Z,101.61
2023-04-18T07:09:19.604Z,102.67
2023-04-18T07:11:46.352Z,102.63
2023-04-18T07:14:13.319Z,102.26
2023-04-18T07:16:40.567Z,102.35
2023-04-18T07:19:07.526Z,102.41
2023-04-18T07:21:34.360Z,102.57
2023-04-18T07:24:01.071Z,102.02
2023-04-18T07:26:27.997Z,101.73
2023-04-18T07:28:54.746Z,101.44
2023-04-18T07:31:21.578Z,101.67
2023-04-18T07:33:48.369Z,101.08
2023-04-18T07:36:15.385Z,101.55
2023-04-18T07:38:42.565Z,100.96
2023-04-18T07:41:09.396Z,100.99
2023-04-18T07:43:36.193Z,101.05
2023-04-18T07:46:03.131Z,101.00
2023-04-18T07:48:29.947Z,100.65
2023-04-18T07:50:56.747Z,100.51
2023-04-18T07:53:23.600Z,99.67
2023-04-18T07:55:50.489Z,99.74
2023-04-18T07:58:17.850Z,99.45
2023-04-18T08:00:44.777Z,98.21
2023-04-18T08:03:12.726Z,97.85
2023-04-18T08:05:41.205Z,98.19
2023-04-18T08:08:10.076Z,97.55
2023-04-18T08:10:37.389Z,98.14
2023-04-18T08:13:04.933Z,97.64
2023-04-18T08:15:32.735Z,97.45
2023-04-18T08:18:00.915Z,96.73
2023-04-18T08:20:28.112Z,96.78
2023-04-18T08:25:24.877Z,95.56
2023-04-18T08:27:51.922Z,94.83
2023-04-18T08:30:18.904Z,95.45
2023-04-18T08:32:45.737Z,96.18
2023-04-18T08:35:12.586Z,95.41
2023-04-18T08:37:39.381Z,95.44
2023-04-18T08:40:07.279Z,95.30
2023-04-18T08:42:35.333Z,95.57
2023-04-18T08:45:02.684Z,94.40
2023-04-18T08:47:30.131Z,94.55
2023-04-18T08:49:58.456Z,93.70
2023-04-18T08:52:27.483Z,92.37
2023-04-18T08:54:54.190Z,92.88
2023-04-18T08:57:26.815Z,92.51
2023-04-18T08:59:54.318Z,92.75
2023-04-18T09:02:26.815Z,93.69
2023-04-18T09:04:55.702Z,92.41
2023-04-18T09:07:29.776Z,93.66
2023-04-18T09:09:58.216Z,94.00
2023-04-18T09:12:27.816Z,94.77
2023-04-18T09:14:57.778Z,94.65
2023-04-18T09:17:35.454Z,93.14
2023-04-18T09:20:05.254Z,93.94
2023-04-18T09:22:54.373Z,92.22
2023-04-18T09:25:35.078Z,91.63
2023-04-18T09:28:02.931Z,91.56
2023-04-18T09:30:33.127Z,92.11
2023-04-18T09:33:01.509Z,91.29
2023-04-18T09:35:28.449Z,89.76
2023-04-18T09:37:55.524Z,90.67
2023-04-18T09:40:22.414Z,88.71
2023-04-18T09:42:51.692Z,88.48
2023-04-18T09:45:18.754Z,87.70
2023-04-18T09:47:45.793Z,88.19
2023-04-18T09:50:12.894Z,89.34
2023-04-18T09:52:42.053Z,87.80
2023-04-18T09:55:15.080Z,87.61
2023-04-18T09:57:45.518Z,87.84
2023-04-18T10:00:24.836Z,87.38
2023-04-18T10:03:08.677Z,85.76
2023-04-18T10:05:38.756Z,84.31
2023-04-18T10:08:07.313Z,82.78
2023-04-18T10:10:34.131Z,82.27
2023-04-18T10:13:02.783Z,81.23
2023-04-18T10:15:31.258Z,81.65
2023-04-18T10:18:05.780Z,79.82
2023-04-18T10:20:34.969Z,79.04
2023-04-18T10:23:31.374Z,79.56
2023-04-18T10:25:59.071Z,77.92
2023-04-18T10:28:27.517Z,74.91
2023-04-18T10:30:56.392Z,77.78
2023-04-18T10:33:32.218Z,77.00
2023-04-18T10:36:17.856Z,75.63
2023-04-18T10:38:50.014Z,74.64
2023-04-18T10:41:22.987Z,73.36
2023-04-18T10:44:14.595Z,73.98
2023-04-18T10:46:48.914Z,71.95
2023-04-18T10:49:25.864Z,68.56
2023-04-18T10:51:55.730Z,69.53
2023-04-18T10:54:28.419Z,67.17
2023-04-18T10:56:57.198Z,66.75
2023-04-18T10:59:25.371Z,66.54
2023-04-18T11:02:07.450Z,66.22
2023-04-18T11:04:34.532Z,64.07
2023-04-18T11:07:01.554Z,63.78
2023-04-18T11:09:28.295Z,65.04
2023-04-18T11:12:12.063Z,60.00
2023-04-18T11:14:47.629Z,62.90
2023-04-18T11:17:20.468Z,59.95
2023-04-18T11:19:48.097Z,59.96
2023-04-18T11:22:15.727Z,59.06
2023-04-18T11:24:42.485Z,58.05
2023-04-18T11:27:11.080Z,56.29
2023-04-18T11:29:38.596Z,54.43
2023-04-18T11:32:09.428Z,55.36
2023-04-18T11:34:36.595Z,53.27
2023-04-18T11:37:07.512Z,49.83
2023-04-18T11:39:43.915Z,48.14
2023-04-18T11:42:11.405Z,48.26
2023-04-18T11:44:39.989Z,49.13
2023-04-18T11:47:23.262Z,50.88
2023-04-18T11:49:57.280Z,49.46
2023-04-18T11:52:24.997Z,51.44
2023-04-18T11:54:51.814Z,47.13
2023-04-18T11:57:24.327Z,48.40
2023-04-18T11:59:52.972Z,47.57
2023-04-18T12:02:21.547Z,48.34
2023-04-18T12:04:53.819Z,48.73
2023-04-18T12:07:34.856Z,49.04
2023-04-18T12:10:02.612Z,50.92
2023-04-18T12:12:29.450Z,52.62
2023-04-18T12:15:05.623Z,55.84
2023-04-18T12:17:32.727Z,55.24
2023-04-18T12:20:10.161Z,52.66
2023-04-18T12:22:49.482Z,53.67
2023-04-18T12:25:26.170Z,56.58
2023-04-18T12:27:58.270Z,55.51
2023-04-18T12:30:30.965Z,55.33
2023-04-18T12:33:04.784Z,57.23
2023-04-18T12:35:32.383Z,59.06
2023-04-18T12:38:01.409Z,62.27
2023-04-18T12:40:29.612Z,63.20
2023-04-18T12:42:56.608Z,63.83
2023-04-18T12:45:24.365Z,66.69
2023-04-18T12:47:53.730Z,67.07
2023-04-18T12:50:23.344Z,68.12
2023-04-18T12:52:53.117Z,68.92
2023-04-18T12:55:21.546Z,68.24
2023-04-18T12:57:51.663Z,69.45
2023-04-18T13:00:18.424Z,71.00
2023-04-18T13:02:45.973Z,71.79
2023-04-18T13:05:14.615Z,71.96
2023-04-18T13:07:42.688Z,71.91
2023-04-18T13:10:11.917Z,69.48
2023-04-18T13:12:40.063Z,71.01
2023-04-18T13:15:08.076Z,69.61
2023-04-18T13:17:36.952Z,64.21
2023-04-18T13:20:06.700Z,64.06
2023-04-18T13:22:33.936Z,63.60
2023-04-18T13:25:00.700Z,64.43
2023-04-18T13:27:27.632Z,64.34
2023-04-18T13:29:55.335Z,63.69
2023-04-18T13:32:22.242Z,62.02
2023-04-18T13:34:49.437Z,60.76
2023-04-18T13:37:16.509Z,61.31
2023-04-18T13:39:43.339Z,63.75
2023-04-18T13:42:10.196Z,65.60
2023-04-18T13:44:37.708Z,68.11
2023-04-18T13:47:05.954Z,67.87
2023-04-18T13:49:34.496Z,69.04
2023-04-18T13:52:01.475Z,70.47
2023-04-18T13:54:30.288Z,70.12
2023-04-18T13:56:58.874Z,65.75
2023-04-18T13:59:26.462Z,62.00
2023-04-18T14:01:54.306Z,62.86
2023-04-18T14:04:22.468Z,61.94
2023-04-18T14:06:50.507Z,63.78
2023-04-18T14:09:17.974Z,66.60
2023-04-18T14:11:45.278Z,66.46
2023-04-18T14:14:12.103Z,68.58
2023-04-18T14:16:38.945Z,69.63
2023-04-18T14:19:05.950Z,69.86
2023-04-18T14:21:32.819Z,70.03
2023-04-18T14:23:59.535Z,70.51
2023-04-18T14:26:26.405Z,70.57
2023-04-18T14:28:53.192Z,69.58
2023-04-18T14:31:20.084Z,68.99
2023-04-18T14:33:46.800Z,67.77
2023-04-18T14:36:15.384Z,68.69
2023-04-18T14:38:42.447Z,67.53
2023-04-18T14:41:09.413Z,67.18
2023-04-18T14:43:36.651Z,68.80
2023-04-18T14:46:03.448Z,68.60
2023-04-18T14:48:30.219Z,68.98
2023-04-18T14:51:02.495Z,67.47
2023-04-18T14:53:29.476Z,64.00
2023-04-18T14:55:56.328Z,62.24
2023-04-18T14:58:23.182Z,59.16
2023-04-18T15:00:51.306Z,57.64
2023-04-18T15:03:18.463Z,58.54
2023-04-18T15:05:48.684Z,58.16
2023-04-18T15:08:16.150Z,58.45
2023-04-18T15:10:43.064Z,58.29
2023-04-18T15:13:11.028Z,57.25
2023-04-18T15:15:39.713Z,60.25
2023-04-18T15:18:08.422Z,59.96
2023-04-18T15:20:39.547Z,59.90
2023-04-18T15:23:07.035Z,58.36
2023-04-18T15:25:35.688Z,60.38
2023-04-18T15:28:02.730Z,55.78
2023-04-18T15:30:29.774Z,52.36
2023-04-18T15:32:57.199Z,50.70
2023-04-18T15:35:24.439Z,48.12
2023-04-18T15:37:51.630Z,47.65
2023-04-18T15:40:18.820Z,48.34
2023-04-18T15:42:46.096Z,56.39
2023-04-18T15:45:13.265Z,60.01
2023-04-18T15:47:41.301Z,59.18
2023-04-18T15:50:09.189Z,56.51
2023-04-18T15:52:36.704Z,55.07
2023-04-18T15:55:04.811Z,53.90
2023-04-18T15:57:31.916Z,51.93
2023-04-18T15:59:59.825Z,48.02
2023-04-18T16:02:27.086Z,46.76
2023-04-18T16:04:53.999Z,46.21
2023-04-18T16:07:21.087Z,44.67
2023-04-18T16:09:47.888Z,44.09
2023-04-18T16:12:14.704Z,43.26
2023-04-18T16:14:41.544Z,41.97
2023-04-18T16:17:08.586Z,42.02
2023-04-18T16:19:38.365Z,41.20
2023-04-18T16:22:07.254Z,41.72
2023-04-18T16:24:34.752Z,41.52
2023-04-18T16:27:01.672Z,41.20
2023-04-18T16:29:28.414Z,39.59
2023-04-18T16:31:55.221Z,38.52
2023-04-18T16:34:22.007Z,39.39
2023-04-18T16:36:51.005Z,40.36
2023-04-18T16:39:19.169Z,37.96
2023-04-18T16:41:45.970Z,38.32
2023-04-18T16:44:13.144Z,38.79
2023-04-18T16:46:40.204Z,39.70
2023-04-18T16:49:07.080Z,38.48
2023-04-18T16:51:36.219Z,39.54
2023-04-18T16:54:03.853Z,37.41
2023-04-18T16:56:30.678Z,37.24
2023-04-18T16:58:58.576Z,38.41
2023-04-18T17:01:25.583Z,38.62
2023-04-18T17:03:52.561Z,38.85
2023-04-18T17:06:19.443Z,38.68
2023-04-18T17:08:46.221Z,39.97
2023-04-18T17:11:13.041Z,40.71
2023-04-18T17:13:39.799Z,40.41
2023-04-18T17:16:07.631Z,39.88
2023-04-18T17:18:34.431Z,38.40
2023-04-18T17:21:01.304Z,38.36
2023-04-18T17:23:28.152Z,38.14
2023-04-18T17:25:54.931Z,37.63
2023-04-18T17:28:23.738Z,38.11
2023-04-18T17:30:50.717Z,37.63
2023-04-18T17:33:17.534Z,38.37
2023-04-18T17:35:44.403Z,38.67
2023-04-18T17:38:13.475Z,38.93
2023-04-18T17:40:40.398Z,38.50
2023-04-18T17:43:07.389Z,40.65
2023-04-18T17:45:34.235Z,38.79
2023-04-18T17:48:03.153Z,38.08
2023-04-18T17:50:30.093Z,38.38
2023-04-18T17:52:57.496Z,38.77
2023-04-18T17:55:26.103Z,38.83
2023-04-18T17:57:52.956Z,39.68
2023-04-18T18:00:20.095Z,39.78
2023-04-18T18:02:47.249Z,40.14
2023-04-18T18:05:14.334Z,40.34
2023-04-18T18:07:45.892Z,41.09
2023-04-18T18:10:22.394Z,41.38
2023-04-18T18:12:49.359Z,41.22
2023-04-18T18:15:16.291Z,41.55
2023-04-18T18:17:43.366Z,44.65
2023-04-18T18:20:12.912Z,41.79
2023-04-18T18:22:39.741Z,42.55
2023-04-18T18:25:07.503Z,49.52
2023-04-18T18:27:34.367Z,49.98
2023-04-18T18:30:01.458Z,51.03
2023-04-18T18:32:28.283Z,52.82
2023-04-18T18:34:55.421Z,53.80
2023-04-18T18:37:24.562Z,55.27
2023-04-18T18:39:51.462Z,56.10
2023-04-18T18:42:18.272Z,57.19
2023-04-18T18:44:45.363Z,58.22
2023-04-18T18:47:12.261Z,59.48
2023-04-18T18:49:40.766Z,60.25
2023-04-18T18:52:07.690Z,62.66
2023-04-18T18:54:34.655Z,62.50
2023-04-18T18:57:04.386Z,63.65
2023-04-18T18:59:31.392Z,64.35
2023-04-18T19:01:58.318Z,64.42
2023-04-18T19:04:26.025Z,64.18
2023-04-18T19:06:53.614Z,64.47
2023-04-18T19:09:20.429Z,64.98
2023-04-18T19:11:47.219Z,63.58
2023-04-18T19:14:14.078Z,61.92
2023-04-18T19:16:41.033Z,63.64
2023-04-18T19:19:08.336Z,62.52
2023-04-18T19:21:35.180Z,57.53
2023-04-18T19:24:01.943Z,57.16
2023-04-18T19:26:28.694Z,55.74
2023-04-18T19:28:55.802Z,56.09
2023-04-18T19:31:22.910Z,56.27
2023-04-18T19:33:50.139Z,56.85
2023-04-18T19:36:17.320Z,56.77
2023-04-18T19:38:44.196Z,57.51
2023-04-18T19:41:11.123Z,58.45
2023-04-18T19:43:38.418Z,58.42
2023-04-18T19:46:05.485Z,59.61
2023-04-18T19:48:32.333Z,60.22
2023-04-18T19:50:59.137Z,61.34
2023-04-18T19:53:26.037Z,60.80
2023-04-18T19:55:54.911Z,61.75
2023-04-18T19:58:39.795Z,62.91
2023-04-18T20:01:07.615Z,63.28
2023-04-18T20:03:34.888Z,64.14
2023-04-18T20:06:01.835Z,65.37
2023-04-18T20:08:29.293Z,65.14
2023-04-18T20:10:56.588Z,67.22
2023-04-18T20:13:23.550Z,66.27
2023-04-18T20:15:50.392Z,66.39
2023-04-18T20:18:17.316Z,66.01
2023-04-18T20:20:44.328Z,66.42
2023-04-18T20:23:11.394Z,67.78
2023-04-18T20:25:38.182Z,69.20
2023-04-18T20:28:05.357Z,69.11
2023-04-18T20:30:38.384Z,68.58
2023-04-18T20:33:05.526Z,69.52
2023-04-18T20:35:32.530Z,70.79
2023-04-18T20:38:00.344Z,71.15
2023-04-18T20:40:28.116Z,70.81
2023-04-18T20:42:57.874Z,70.91
2023-04-18T20:45:25.230Z,70.85
2023-04-18T20:47:52.095Z,71.77
2023-04-18T20:50:20.431Z,71.85
2023-04-18T20:52:47.722Z,73.03
2023-04-18T20:55:16.912Z,73.67
2023-04-18T20:57:43.895Z,72.62
2023-04-18T21:00:13.892Z,70.35
2023-04-18T21:02:41.656Z,70.10
2023-04-18T21:05:08.901Z,69.44
2023-04-18T21:07:36.280Z,69.10
2023-04-18T21:10:06.648Z,67.83
2023-04-18T21:12:33.393Z,67.96
2023-04-18T21:15:00.452Z,68.06
2023-04-18T21:17:27.229Z,66.51
2023-04-18T21:19:55.746Z,67.41
2023-04-18T21:22:22.472Z,64.93
2023-04-18T21:24:49.232Z,65.21
2023-04-18T21:27:16.296Z,64.55
2023-04-18T21:29:43.107Z,65.32
2023-04-18T21:32:09.920Z,64.92
2023-04-18T21:34:36.796Z,64.72
2023-04-18T21:37:03.976Z,65.69
2023-04-18T21:39:31.057Z,65.95
2023-04-18T21:41:57.935Z,66.58
2023-04-18T21:44:24.747Z,66.53
2023-04-18T21:46:51.557Z,66.52
2023-04-18T21:49:18.398Z,67.11
2023-04-18T21:51:45.383Z,67.09
2023-04-18T21:54:12.223Z,66.65
2023-04-18T21:56:39.125Z,65.49
2023-04-18T21:59:05.842Z,66.82
2023-04-18T22:01:34.397Z,66.73
2023-04-18T22:04:02.055Z,65.26
2023-04-18T22:06:29.369Z,65.66
2023-04-18T22:08:56.064Z,65.82
2023-04-18T22:11:23.726Z,65.90
2023-04-18T22:13:54.125Z,65.88
2023-04-18T22:16:24.460Z,64.55
2023-04-18T22:18:51.443Z,65.03
2023-04-18T22:21:18.207Z,65.04
2023-04-18T22:23:44.870Z,66.43
2023-04-18T22:26:11.574Z,65.57
2023-04-18T22:28:38.339Z,66.40
2023-04-18T22:31:05.419Z,67.50
2023-04-18T22:33:32.153Z,67.91
2023-04-18T22:35:59.130Z,81.09
2023-04-18T22:38:25.877Z,83.45
2023-04-18T22:40:52.705Z,75.23
2023-04-18T22:43:22.947Z,77.41
2023-04-18T22:45:50.122Z,75.86
2023-04-18T22:48:17.197Z,76.67
2023-04-18T22:50:44.070Z,71.72
2023-04-18T22:53:11.194Z,71.05
2023-04-18T22:55:42.352Z,72.59
2023-04-18T22:58:10.632Z,70.14
2023-04-18T23:00:37.849Z,68.10
2023-04-18T23:03:04.794Z,70.06
2023-04-18T23:05:31.765Z,66.94
2023-04-18T23:08:00.356Z,68.84
2023-04-18T23:10:27.917Z,66.69
2023-04-18T23:12:54.678Z,66.66
2023-04-18T23:15:22.796Z,67.81
2023-04-18T23:17:55.169Z,67.22
2023-04-18T23:20:23.759Z,65.61
2023-04-18T23:22:51.739Z,67.94
2023-04-18T23:25:19.760Z,64.96
2023-04-18T23:27:46.951Z,67.95
2023-04-18T23:30:13.693Z,68.07
2023-04-18T23:32:40.413Z,66.70
2023-04-18T23:35:07.381Z,66.57
2023-04-18T23:37:34.255Z,68.59
2023-04-18T23:40:01.052Z,70.60
2023-04-18T23:42:27.839Z,70.78
2023-04-18T23:44:54.659Z,72.08
2023-04-18T23:47:21.994Z,73.78
2023-04-18T23:49:48.767Z,75.31
2023-04-18T23:52:15.573Z,75.55
2023-04-18T23:54:42.530Z,75.83
2023-04-18T23:57:09.230Z,76.41
2023-04-18T23:59:36.101Z,76.66
